Hlavní strana
METAR-TAF:

METAR-TAF

Letiště :

Edgar County Airport

Paris, Illinois, Spojené státy americké

zeměpisná šířka: 39-42-01N, zeměpisná délka: 087-40-11W, výška: 199 m

Aktuální stav počasí

Zpráva byla vytvořena před 35 minutami, v 20:15 UTC
Východní vítr 3 kt
Teplota 7°C
Vlhkost vzduchu 100%
Tlak 1007 hPa
Viditelnost: 16.1 km
Zataženo ve výšce 1100 ft

METAR: KPRG 242015Z AUTO 10003KT 10SM OVC011 07/07 A2974 RMK AO2 T00730065

Čas: 14:50 (20:50 UTC)


TAF: chybějící

Stav a předpovědi počasí z více než 4 000 letišť (zprávy METAR a TAF).

Červené a žluté tečky na mapě představují dostupné meteorologické stanice.

Když kurzor umístíte na tečku, zobrazí se název stanice.

Pak kliknutím zobrazíte stav a předpověď počasí.

Chcete-li změnit mapu, kliknutím na zelené tlačítko se znaménkem +mapu přiblížíte, kliknutím na zelené tlačítko se znaménkem – mapu oddálíte a kliknutím na zelené šipky přejdete na sousední mapy.


METAR-TAF: